Terminal Aerodrome Forecast
Issued by NWS

Home | Current Version | Previous Version | Text Only | Print | Product List | Glossary On
Versions: 1 2 3 4 5 6 7 8 9 10 11 12 13
000
FTUS45 KTFX 220520
TAFHVR
TAF
KHVR 220520Z 2206/2306 08008KT P6SM SKC
     FM222000 09011KT P6SM SCT080
     FM230000 10009KT P6SM BKN120=

USA.gov is the U.S. government's official web portal to all federal, state and local government web resources and services.